createdAt,value
2018-02-20T00:01:56.161Z,32.80
2018-02-20T00:04:22.385Z,30.95
2018-02-20T00:06:49.693Z,40.35
2018-02-20T00:09:15.848Z,31.02
2018-02-20T00:11:42.431Z,34.28
2018-02-20T00:14:08.612Z,31.45
2018-02-20T00:16:35.595Z,30.62
2018-02-20T00:19:01.854Z,39.67
2018-02-20T00:21:28.058Z,35.35
2018-02-20T00:23:54.295Z,34.35
2018-02-20T00:26:21.493Z,33.75
2018-02-20T00:28:47.816Z,30.77
2018-02-20T00:31:14.779Z,33.17
2018-02-20T00:33:40.986Z,38.15
2018-02-20T00:36:07.970Z,37.22
2018-02-20T00:38:34.129Z,39.78
2018-02-20T00:41:00.339Z,34.35
2018-02-20T00:43:26.573Z,33.78
2018-02-20T00:45:52.804Z,36.58
2018-02-20T00:48:19.036Z,33.17
2018-02-20T00:50:45.327Z,34.80
2018-02-20T00:53:11.539Z,40.42
2018-02-20T00:55:38.452Z,36.67
2018-02-20T00:58:05.040Z,38.88
2018-02-20T01:00:31.588Z,30.75
2018-02-20T01:02:58.511Z,34.35
2018-02-20T01:05:25.110Z,36.75
2018-02-20T01:07:51.324Z,35.70
2018-02-20T01:10:17.848Z,32.47
2018-02-20T01:12:44.040Z,35.75
2018-02-20T01:15:10.926Z,34.63
2018-02-20T01:17:37.182Z,40.50
2018-02-20T01:20:03.374Z,38.83
2018-02-20T01:22:29.605Z,29.80
2018-02-20T01:24:55.750Z,31.95
2018-02-20T01:27:21.954Z,36.58
2018-02-20T01:29:48.183Z,34.65
2018-02-20T01:32:14.371Z,36.05
2018-02-20T01:34:41.323Z,34.45
2018-02-20T01:37:08.248Z,34.33
2018-02-20T01:39:34.430Z,33.47
2018-02-20T01:42:01.349Z,32.75
2018-02-20T01:44:28.280Z,33.50
2018-02-20T01:46:55.242Z,33.35
2018-02-20T01:49:22.131Z,30.77
2018-02-20T01:51:48.310Z,30.77
2018-02-20T01:54:15.239Z,31.90
2018-02-20T01:56:41.447Z,32.60
2018-02-20T01:59:07.653Z,35.92
2018-02-20T02:01:33.843Z,33.88
2018-02-20T02:04:00.783Z,37.38
2018-02-20T02:06:27.726Z,33.50
2018-02-20T02:08:54.662Z,31.15
2018-02-20T02:11:20.830Z,33.72
2018-02-20T02:13:47.012Z,32.08
2018-02-20T02:16:13.184Z,31.75
2018-02-20T02:18:39.403Z,34.17
2018-02-20T02:21:05.962Z,36.30
2018-02-20T02:23:32.551Z,34.90
2018-02-20T02:25:59.486Z,34.15
2018-02-20T02:28:26.363Z,33.28
2018-02-20T02:30:53.286Z,37.38
2018-02-20T02:33:19.454Z,31.98
2018-02-20T02:35:45.652Z,35.53
2018-02-20T02:38:12.613Z,35.03
2018-02-20T02:40:38.812Z,35.13
2018-02-20T02:43:05.393Z,34.15
2018-02-20T02:45:31.598Z,33.55
2018-02-20T02:47:57.781Z,33.45
2018-02-20T02:50:23.949Z,31.67
2018-02-20T02:52:50.879Z,26.40
2018-02-20T02:55:17.102Z,33.00
2018-02-20T02:57:43.313Z,24.55
2018-02-20T03:00:09.568Z,36.25
2018-02-20T03:02:35.759Z,28.77
2018-02-20T03:05:01.958Z,28.27
2018-02-20T03:07:28.162Z,27.02
2018-02-20T03:09:55.103Z,29.70
2018-02-20T03:12:22.072Z,29.75
2018-02-20T03:14:48.229Z,33.03
2018-02-20T03:17:14.432Z,31.60
2018-02-20T03:19:40.642Z,32.50
2018-02-20T03:22:07.544Z,27.17
2018-02-20T03:24:33.732Z,27.42
2018-02-20T03:26:59.906Z,29.42
2018-02-20T03:29:26.044Z,30.02
2018-02-20T03:31:52.213Z,26.45
2018-02-20T03:34:18.453Z,30.15
2018-02-20T03:36:44.638Z,29.02
2018-02-20T03:39:10.820Z,28.80
2018-02-20T03:41:36.992Z,32.90
2018-02-20T03:44:03.237Z,29.77
2018-02-20T03:46:30.179Z,36.67
2018-02-20T03:48:57.072Z,23.80
2018-02-20T03:51:23.284Z,24.27
2018-02-20T03:53:49.498Z,23.85
2018-02-20T03:56:15.687Z,27.33
2018-02-20T03:58:41.880Z,23.67
2018-02-20T04:01:08.043Z,30.83
2018-02-20T04:03:34.237Z,28.27
2018-02-20T04:06:00.422Z,26.87
2018-02-20T04:08:27.369Z,24.08
2018-02-20T04:10:54.270Z,27.42
2018-02-20T04:13:20.431Z,27.27
2018-02-20T04:15:46.638Z,28.08
2018-02-20T04:18:12.819Z,34.30
2018-02-20T04:20:39.026Z,28.58
2018-02-20T04:23:05.974Z,29.80
2018-02-20T04:25:32.907Z,26.00
2018-02-20T04:27:59.782Z,27.62
2018-02-20T04:30:26.715Z,27.87
2018-02-20T04:32:53.676Z,29.17
2018-02-20T04:35:19.843Z,24.85
2018-02-20T04:37:46.030Z,36.30
2018-02-20T04:40:12.294Z,29.17
2018-02-20T04:42:38.478Z,31.27
2018-02-20T04:45:05.427Z,27.17
2018-02-20T04:47:33.023Z,27.95
2018-02-20T04:49:59.228Z,30.50
2018-02-20T04:52:25.383Z,32.75
2018-02-20T04:54:51.591Z,28.08
2018-02-20T04:57:17.820Z,31.83
2018-02-20T04:59:44.016Z,30.40
2018-02-20T05:02:11.751Z,31.33
2018-02-20T05:04:37.903Z,27.77
2018-02-20T05:07:04.084Z,26.27
2018-02-20T05:09:30.234Z,29.37
2018-02-20T05:11:56.428Z,28.17
2018-02-20T05:14:22.608Z,28.15
2018-02-20T05:16:48.804Z,28.40
2018-02-20T05:19:14.975Z,26.95
2018-02-20T05:21:41.921Z,27.58
2018-02-20T05:24:08.834Z,24.75
2018-02-20T05:26:35.039Z,25.83
2018-02-20T05:29:01.341Z,22.98
2018-02-20T05:31:28.222Z,31.20
2018-02-20T05:33:54.424Z,27.40
2018-02-20T05:36:20.640Z,32.58
2018-02-20T05:38:47.540Z,25.98
2018-02-20T05:41:13.724Z,30.65
2018-02-20T05:43:39.928Z,26.00
2018-02-20T05:46:06.891Z,30.95
2018-02-20T05:48:33.809Z,33.13
2018-02-20T05:50:59.977Z,27.52
2018-02-20T05:53:26.169Z,34.28
2018-02-20T05:55:52.343Z,28.77
2018-02-20T05:58:18.615Z,28.38
2018-02-20T06:00:44.801Z,31.55
2018-02-20T06:03:10.959Z,32.38
2018-02-20T06:05:37.167Z,30.05
2018-02-20T06:08:03.356Z,30.98
2018-02-20T06:10:30.313Z,40.38
2018-02-20T06:12:56.552Z,33.20
2018-02-20T06:15:23.155Z,37.80
2018-02-20T06:17:49.365Z,42.13
2018-02-20T06:20:16.493Z,31.48
2018-02-20T06:22:42.686Z,31.02
2018-02-20T06:25:08.905Z,31.20
2018-02-20T06:27:35.861Z,25.00
2018-02-20T06:30:02.091Z,44.10
2018-02-20T06:32:28.338Z,36.00
2018-02-20T06:34:54.567Z,33.80
2018-02-20T06:37:20.759Z,35.40
2018-02-20T06:39:47.690Z,36.60
2018-02-20T06:42:13.873Z,35.45
2018-02-20T06:44:40.074Z,35.60
2018-02-20T06:47:06.292Z,40.35
2018-02-20T06:49:33.323Z,39.67
2018-02-20T06:51:59.502Z,40.35
2018-02-20T06:54:25.735Z,43.72
2018-02-20T06:56:51.982Z,45.90
2018-02-20T06:59:18.147Z,37.92
2018-02-20T07:01:44.344Z,42.85
2018-02-20T07:04:10.721Z,32.45
2018-02-20T07:06:37.687Z,45.15
2018-02-20T07:09:04.122Z,41.42
2018-02-20T07:11:30.319Z,39.58
2018-02-20T07:13:57.284Z,47.70
2018-02-20T07:16:23.847Z,41.00
2018-02-20T07:18:50.072Z,40.47
2018-02-20T07:21:16.277Z,42.60
2018-02-20T07:23:43.221Z,42.08
2018-02-20T07:26:10.126Z,41.92
2018-02-20T07:28:36.289Z,47.05
2018-02-20T07:31:03.186Z,39.45
2018-02-20T07:33:29.411Z,43.92
2018-02-20T07:35:55.642Z,42.05
2018-02-20T07:38:21.823Z,45.30
2018-02-20T07:40:48.784Z,39.33
2018-02-20T07:43:15.606Z,42.47
2018-02-20T07:45:42.745Z,40.63
2018-02-20T07:48:08.919Z,44.55
2018-02-20T07:50:35.126Z,43.50
2018-02-20T07:53:01.391Z,42.30
2018-02-20T07:55:29.227Z,41.92
2018-02-20T07:57:55.468Z,48.97
2018-02-20T08:00:21.670Z,52.10
2018-02-20T08:02:48.602Z,39.10
2018-02-20T08:05:15.704Z,40.95
2018-02-20T08:07:41.773Z,45.65
2018-02-20T08:10:08.714Z,46.80
2018-02-20T08:12:34.917Z,48.80
2018-02-20T08:15:01.091Z,43.10
2018-02-20T08:17:28.017Z,41.92
2018-02-20T08:19:54.468Z,43.80
2018-02-20T08:22:21.431Z,46.53
2018-02-20T08:24:47.634Z,38.78
2018-02-20T08:27:13.814Z,44.10
2018-02-20T08:29:39.998Z,42.40
2018-02-20T08:32:06.915Z,54.72
2018-02-20T08:34:33.057Z,45.87
2018-02-20T08:36:59.208Z,51.57
2018-02-20T08:39:25.572Z,41.88
2018-02-20T08:41:51.782Z,45.25
2018-02-20T08:44:17.966Z,43.28
2018-02-20T08:46:44.176Z,39.87
2018-02-20T08:49:10.378Z,42.47
2018-02-20T08:51:36.562Z,40.80
2018-02-20T08:54:02.836Z,42.03
2018-02-20T08:56:29.020Z,36.70
2018-02-20T08:58:55.245Z,45.47
2018-02-20T09:01:21.421Z,40.13
2018-02-20T09:03:47.632Z,34.20
2018-02-20T09:06:13.857Z,44.27
2018-02-20T09:08:40.074Z,35.70
2018-02-20T09:11:07.031Z,36.17
2018-02-20T09:13:33.277Z,45.30
2018-02-20T09:15:59.492Z,42.03
2018-02-20T09:18:25.653Z,37.93
2018-02-20T09:20:51.861Z,38.23
2018-02-20T09:23:18.062Z,42.40
2018-02-20T09:25:45.003Z,43.60
2018-02-20T09:28:11.952Z,39.93
2018-02-20T09:30:38.174Z,41.43
2018-02-20T09:33:05.121Z,43.30
2018-02-20T09:35:32.047Z,37.90
2018-02-20T09:37:58.254Z,42.13
2018-02-20T09:40:24.420Z,45.03
2018-02-20T09:42:50.556Z,39.67
2018-02-20T09:45:17.101Z,49.00
2018-02-20T09:47:44.055Z,43.17
2018-02-20T09:50:10.250Z,46.73
2018-02-20T09:52:36.459Z,40.90
2018-02-20T09:55:02.694Z,42.63
2018-02-20T09:57:28.865Z,41.30
2018-02-20T09:59:55.043Z,45.63
2018-02-20T10:02:21.211Z,52.40
2018-02-20T10:04:48.190Z,43.23
2018-02-20T10:07:14.394Z,47.10
2018-02-20T10:09:41.342Z,48.90
2018-02-20T10:12:08.621Z,45.60
2018-02-20T10:14:34.788Z,44.47
2018-02-20T10:17:01.003Z,39.80
2018-02-20T10:19:27.323Z,37.00
2018-02-20T10:21:53.532Z,35.30
2018-02-20T10:24:19.825Z,43.60
2018-02-20T10:26:46.731Z,39.17
2018-02-20T10:29:12.941Z,43.30
2018-02-20T10:31:39.075Z,44.37
2018-02-20T10:34:05.639Z,40.70
2018-02-20T10:36:32.224Z,45.27
2018-02-20T10:38:59.359Z,44.30
2018-02-20T10:41:27.315Z,46.73
2018-02-20T10:43:53.889Z,36.63
2018-02-20T10:46:20.218Z,40.87
2018-02-20T10:48:46.410Z,39.93
2018-02-20T10:51:12.628Z,40.77
2018-02-20T10:53:39.201Z,35.23
2018-02-20T10:56:06.123Z,42.73
2018-02-20T10:58:32.297Z,34.80
2018-02-20T11:00:58.861Z,37.70
2018-02-20T11:03:25.102Z,39.20
2018-02-20T11:05:51.303Z,51.77
2018-02-20T11:08:17.516Z,39.80
2018-02-20T11:10:43.703Z,36.03
2018-02-20T11:13:10.228Z,40.60
2018-02-20T11:15:36.452Z,36.43
2018-02-20T11:18:02.642Z,38.90
2018-02-20T11:20:29.311Z,43.90
2018-02-20T11:22:55.499Z,40.43
2018-02-20T11:25:23.398Z,34.80
2018-02-20T11:27:49.613Z,42.47
2018-02-20T11:30:15.812Z,42.40
2018-02-20T11:32:42.606Z,42.40
2018-02-20T11:35:08.890Z,37.80
2018-02-20T11:37:35.089Z,43.73
2018-02-20T11:40:01.264Z,35.60
2018-02-20T11:42:27.468Z,39.43
2018-02-20T11:44:54.427Z,36.10
2018-02-20T11:47:21.063Z,36.57
2018-02-20T11:49:47.661Z,32.07
2018-02-20T11:52:14.658Z,38.97
2018-02-20T11:54:40.859Z,36.30
2018-02-20T11:57:07.779Z,42.10
2018-02-20T11:59:34.762Z,44.20
2018-02-20T12:02:00.931Z,32.60
2018-02-20T12:04:27.139Z,44.80
2018-02-20T12:06:53.329Z,36.73
2018-02-20T12:09:20.738Z,38.43
2018-02-20T12:11:46.956Z,34.30
2018-02-20T12:14:14.695Z,32.50
2018-02-20T12:16:40.918Z,33.53
2018-02-20T12:19:07.821Z,34.70
2018-02-20T12:21:35.002Z,35.23
2018-02-20T12:24:02.001Z,33.23
2018-02-20T12:26:28.213Z,34.43
2018-02-20T12:28:54.422Z,34.47
2018-02-20T12:31:20.983Z,34.80
2018-02-20T12:33:47.206Z,36.73
2018-02-20T12:36:14.107Z,38.63
2018-02-20T12:38:40.698Z,40.33
2018-02-20T12:41:06.932Z,41.07
2018-02-20T12:43:33.135Z,37.00
2018-02-20T12:45:59.303Z,38.63
2018-02-20T12:48:25.490Z,39.87
2018-02-20T12:51:06.622Z,38.20
2018-02-20T12:53:32.879Z,30.07
2018-02-20T12:55:59.078Z,40.77
2018-02-20T12:58:25.642Z,39.63
2018-02-20T13:00:52.238Z,33.23
2018-02-20T13:03:18.461Z,41.40
2018-02-20T13:05:45.068Z,30.73
2018-02-20T13:08:11.278Z,32.00
2018-02-20T13:10:37.494Z,34.57
2018-02-20T13:13:04.504Z,37.43
2018-02-20T13:15:31.173Z,58.67
2018-02-20T13:17:57.356Z,34.20
2018-02-20T13:20:23.618Z,34.83
2018-02-20T13:22:49.854Z,32.67
2018-02-20T13:25:16.103Z,32.10
2018-02-20T13:27:42.285Z,35.03
2018-02-20T13:30:08.436Z,35.13
2018-02-20T13:32:34.620Z,26.90
2018-02-20T13:35:00.786Z,36.33
2018-02-20T13:37:27.007Z,29.50
2018-02-20T13:39:53.197Z,32.80
2018-02-20T13:42:19.371Z,25.90
2018-02-20T13:44:45.968Z,33.80
2018-02-20T13:47:12.183Z,29.70
2018-02-20T13:49:40.060Z,36.77
2018-02-20T13:52:06.261Z,31.90
2018-02-20T13:54:33.220Z,33.13
2018-02-20T13:56:59.461Z,32.67
2018-02-20T13:59:25.736Z,31.57
2018-02-20T14:01:51.977Z,26.47
2018-02-20T14:04:18.886Z,30.97
2018-02-20T14:06:45.903Z,37.27
2018-02-20T14:09:12.839Z,35.70
2018-02-20T14:11:39.829Z,28.37
2018-02-20T14:14:06.036Z,30.27
2018-02-20T14:16:32.207Z,29.30
2018-02-20T14:18:58.400Z,25.23
2018-02-20T14:21:24.563Z,26.90
2018-02-20T14:23:50.773Z,30.70
2018-02-20T14:26:16.941Z,31.20
2018-02-20T14:28:43.845Z,38.10
2018-02-20T14:31:10.075Z,31.50
2018-02-20T14:33:36.577Z,32.53
2018-02-20T14:36:02.935Z,35.03
2018-02-20T14:38:30.235Z,33.53
2018-02-20T14:40:57.190Z,31.03
2018-02-20T14:43:23.409Z,28.27
2018-02-20T14:45:49.598Z,36.17
2018-02-20T14:48:16.211Z,35.60
2018-02-20T14:50:43.586Z,38.80
2018-02-20T14:53:09.782Z,30.87
2018-02-20T14:55:36.372Z,26.67
2018-02-20T14:58:02.530Z,27.37
2018-02-20T15:00:29.480Z,29.97
2018-02-20T15:02:56.395Z,29.97
2018-02-20T15:05:22.974Z,28.00
2018-02-20T15:07:49.543Z,25.50
2018-02-20T15:10:15.748Z,29.50
2018-02-20T15:12:42.711Z,28.30
2018-02-20T15:15:08.942Z,30.47
2018-02-20T15:17:35.944Z,30.10
2018-02-20T15:20:02.867Z,35.10
2018-02-20T15:22:29.095Z,29.83
2018-02-20T15:24:55.282Z,34.17
2018-02-20T15:27:21.840Z,30.60
2018-02-20T15:29:49.150Z,29.40
2018-02-20T15:32:16.108Z,32.63
2018-02-20T15:34:43.022Z,28.23
2018-02-20T15:37:10.725Z,17.17
2018-02-20T15:39:36.962Z,38.70
2018-02-20T15:42:03.908Z,30.33
2018-02-20T15:44:30.495Z,34.23
2018-02-20T15:46:56.699Z,26.87
2018-02-20T15:49:22.916Z,36.20
2018-02-20T15:51:49.450Z,32.83
2018-02-20T15:54:15.692Z,35.10
2018-02-20T15:56:42.663Z,30.90
2018-02-20T15:59:08.886Z,33.03
2018-02-20T16:01:35.130Z,27.00
2018-02-20T16:04:01.356Z,27.30
2018-02-20T16:06:27.990Z,25.93
2018-02-20T16:08:54.214Z,34.40
2018-02-20T16:11:35.404Z,35.27
2018-02-20T16:14:09.940Z,32.40
2018-02-20T16:16:36.143Z,37.40
2018-02-20T16:19:02.352Z,38.23
2018-02-20T16:21:28.993Z,36.20
2018-02-20T16:23:55.196Z,32.80
2018-02-20T16:26:22.136Z,42.13
2018-02-20T16:28:49.158Z,36.20
2018-02-20T16:31:16.173Z,38.20
2018-02-20T16:33:42.388Z,39.43
2018-02-20T16:36:08.628Z,42.33
2018-02-20T16:38:34.834Z,45.50
2018-02-20T16:41:01.431Z,42.53
2018-02-20T16:43:28.395Z,42.80
2018-02-20T16:45:55.389Z,43.73
2018-02-20T16:48:21.714Z,42.10
2018-02-20T16:50:47.978Z,42.20
2018-02-20T16:53:14.934Z,44.07
2018-02-20T16:55:41.522Z,42.97
2018-02-20T16:58:08.826Z,41.90
2018-02-20T17:00:35.885Z,44.63
2018-02-20T17:03:02.837Z,48.00
2018-02-20T17:05:29.444Z,55.60
2018-02-20T17:07:56.410Z,44.10
2018-02-20T17:10:23.374Z,48.40
2018-02-20T17:12:49.550Z,50.33
2018-02-20T17:15:18.402Z,46.13
2018-02-20T17:17:44.603Z,45.50
2018-02-20T17:20:11.174Z,47.00
2018-02-20T17:22:37.786Z,46.63
2018-02-20T17:25:04.788Z,49.23
2018-02-20T17:27:30.964Z,51.20
2018-02-20T17:29:57.507Z,52.60
2018-02-20T17:32:24.610Z,47.47
2018-02-20T17:34:50.847Z,47.00
2018-02-20T17:37:17.115Z,46.23
2018-02-20T17:39:43.679Z,45.40
2018-02-20T17:42:09.853Z,42.83
2018-02-20T17:44:36.828Z,44.60
2018-02-20T17:47:03.042Z,53.53
2018-02-20T17:49:30.072Z,49.57
2018-02-20T17:51:56.280Z,47.35
2018-02-20T17:54:23.226Z,42.60
2018-02-20T17:56:49.386Z,45.03
2018-02-20T17:59:16.322Z,45.05
2018-02-20T18:01:42.496Z,49.23
2018-02-20T18:04:08.697Z,48.03
2018-02-20T18:06:34.951Z,47.10
2018-02-20T18:09:01.720Z,50.05
2018-02-20T18:11:28.342Z,50.80
2018-02-20T18:13:54.632Z,51.53
2018-02-20T18:16:21.576Z,54.70
2018-02-20T18:18:48.532Z,50.83
2018-02-20T18:21:15.552Z,52.93
2018-02-20T18:23:42.176Z,52.17
2018-02-20T18:26:08.612Z,48.80
2018-02-20T18:28:34.902Z,51.75
2018-02-20T18:31:01.927Z,53.33
2018-02-20T18:33:28.521Z,58.27
2018-02-20T18:35:54.785Z,55.10
2018-02-20T18:38:21.358Z,45.00
2018-02-20T18:40:47.906Z,54.27
2018-02-20T18:43:15.262Z,34.37
2018-02-20T18:45:42.583Z,47.53
2018-02-20T18:48:08.792Z,50.07
2018-02-20T18:50:35.027Z,45.57
2018-02-20T18:53:01.976Z,50.10
2018-02-20T18:55:29.306Z,53.07
2018-02-20T18:57:55.532Z,58.20
2018-02-20T19:00:21.788Z,61.50
2018-02-20T19:02:48.716Z,66.70
2018-02-20T19:05:15.681Z,57.90
2018-02-20T19:07:41.937Z,57.33
2018-02-20T19:10:08.171Z,53.00
2018-02-20T19:12:34.434Z,49.90
2018-02-20T19:15:00.649Z,52.63
2018-02-20T19:17:26.933Z,51.00
2018-02-20T19:19:53.877Z,48.97
2018-02-20T19:22:20.865Z,50.17
2018-02-20T19:24:47.056Z,49.23
2018-02-20T19:27:13.312Z,45.53
2018-02-20T19:29:39.540Z,47.30
2018-02-20T19:32:05.778Z,49.43
2018-02-20T19:34:31.958Z,51.03
2018-02-20T19:36:58.900Z,53.57
2018-02-20T19:39:25.827Z,51.30
2018-02-20T19:41:52.122Z,56.20
2018-02-20T19:44:19.264Z,52.57
2018-02-20T19:46:45.504Z,52.00
2018-02-20T19:49:11.833Z,52.80
2018-02-20T19:51:38.056Z,47.17
2018-02-20T19:54:04.267Z,52.73
2018-02-20T19:56:31.194Z,45.20
2018-02-20T19:58:58.207Z,50.60
2018-02-20T20:01:24.486Z,51.97
2018-02-20T20:03:50.707Z,53.33
2018-02-20T20:06:19.167Z,52.83
2018-02-20T20:08:45.473Z,55.33
2018-02-20T20:11:11.729Z,61.53
2018-02-20T20:13:37.984Z,57.80
2018-02-20T20:16:04.935Z,53.83
2018-02-20T20:18:31.126Z,58.73
2018-02-20T20:20:57.406Z,60.43
2018-02-20T20:23:24.236Z,69.27
2018-02-20T20:25:50.474Z,58.80
2018-02-20T20:28:16.841Z,65.73
2018-02-20T20:30:43.164Z,65.73
2018-02-20T20:33:09.445Z,67.93
2018-02-20T20:35:35.692Z,59.07
2018-02-20T20:38:04.013Z,58.70
2018-02-20T20:40:30.274Z,61.13
2018-02-20T20:42:57.320Z,59.17
2018-02-20T20:45:23.488Z,66.73
2018-02-20T20:47:49.740Z,63.73
2018-02-20T20:50:16.012Z,66.23
2018-02-20T20:52:43.009Z,62.07
2018-02-20T20:55:09.225Z,60.67
2018-02-20T20:57:35.553Z,60.53
2018-02-20T21:00:01.901Z,66.85
2018-02-20T21:02:28.203Z,66.22
2018-02-20T21:04:56.062Z,56.85
2018-02-20T21:07:22.609Z,64.37
2018-02-20T21:09:48.821Z,66.20
2018-02-20T21:12:15.802Z,68.30
2018-02-20T21:14:42.046Z,60.27
2018-02-20T21:17:08.417Z,61.10
2018-02-20T21:19:35.354Z,66.27
2018-02-20T21:22:01.599Z,64.32
2018-02-20T21:24:28.556Z,61.97
2018-02-20T21:26:54.794Z,65.70
2018-02-20T21:29:20.973Z,68.93
2018-02-20T21:31:47.206Z,60.92
2018-02-20T21:34:13.451Z,66.30
2018-02-20T21:36:39.695Z,67.10
2018-02-20T21:39:07.618Z,66.22
2018-02-20T21:41:33.874Z,61.05
2018-02-20T21:44:00.112Z,60.33
2018-02-20T21:46:26.342Z,65.97
2018-02-20T21:48:53.278Z,73.43
2018-02-20T21:51:19.468Z,73.05
2018-02-20T21:53:45.660Z,70.60
2018-02-20T21:56:11.905Z,64.57
2018-02-20T21:58:38.148Z,69.68
2018-02-20T22:01:04.371Z,70.55
2018-02-20T22:03:30.604Z,77.12
2018-02-20T22:05:56.885Z,68.22
2018-02-20T22:08:23.846Z,74.62
2018-02-20T22:10:50.770Z,73.77
2018-02-20T22:13:17.043Z,79.40
2018-02-20T22:15:43.323Z,69.55
2018-02-20T22:18:09.622Z,85.00
2018-02-20T22:20:36.530Z,79.65
2018-02-20T22:23:03.509Z,64.57
2018-02-20T22:25:29.706Z,69.90
2018-02-20T22:27:56.706Z,77.10
2018-02-20T22:30:22.872Z,79.57
2018-02-20T22:32:49.855Z,70.50
2018-02-20T22:35:16.067Z,83.12
2018-02-20T22:37:42.248Z,70.03
2018-02-20T22:40:08.481Z,85.55
2018-02-20T22:42:34.705Z,63.42
2018-02-20T22:45:00.940Z,72.82
2018-02-20T22:47:27.124Z,70.53
2018-02-20T22:49:53.366Z,73.50
2018-02-20T22:52:19.583Z,82.32
2018-02-20T22:54:45.780Z,69.22
2018-02-20T22:57:12.726Z,71.90
2018-02-20T22:59:38.893Z,73.22
2018-02-20T23:02:05.118Z,77.95
2018-02-20T23:04:31.832Z,78.15
2018-02-20T23:06:58.766Z,80.18
2018-02-20T23:09:25.713Z,80.45
2018-02-20T23:11:51.936Z,69.13
2018-02-20T23:14:18.186Z,82.65
2018-02-20T23:16:44.413Z,79.22
2018-02-20T23:19:11.355Z,80.00
2018-02-20T23:21:38.331Z,69.97
2018-02-20T23:24:04.485Z,78.45
2018-02-20T23:26:30.687Z,82.82
2018-02-20T23:28:56.913Z,88.62
2018-02-20T23:31:23.132Z,75.55
2018-02-20T23:33:49.324Z,77.97
2018-02-20T23:36:15.508Z,74.93
2018-02-20T23:38:41.729Z,77.80
2018-02-20T23:41:07.954Z,75.95
2018-02-20T23:43:34.876Z,78.95
2018-02-20T23:46:01.825Z,78.85
2018-02-20T23:48:28.760Z,84.87
2018-02-20T23:51:01.825Z,78.10
2018-02-20T23:53:28.020Z,71.03
2018-02-20T23:55:54.281Z,73.97
2018-02-20T23:58:20.543Z,72.20
